sensor_id;sensor_type;location;lat;lon;timestamp;pressure;altitude;pressure_sealevel;temperature;humidity
76070;BME280;64768;51.738;5.852;2023-01-10T04:14:23;101524.53;;;4.68;100.00
76070;BME280;64768;51.738;5.852;2023-01-10T04:17:14;101506.38;;;4.53;100.00
76070;BME280;64768;51.738;5.852;2023-01-10T04:46:28;101533.97;;;4.34;100.00
76070;BME280;64768;51.738;5.852;2023-01-10T04:50:44;101556.13;;;4.40;100.00
76070;BME280;64768;51.738;5.852;2023-01-10T04:55:14;101565.88;;;4.44;100.00
76070;BME280;64768;51.738;5.852;2023-01-10T05:18:42;101569.75;;;4.19;100.00
76070;BME280;64768;51.738;5.852;2023-01-10T05:21:56;101591.53;;;4.26;100.00
76070;BME280;64768;51.738;5.852;2023-01-10T06:27:42;101675.09;;;4.50;100.00
76070;BME280;64768;51.738;5.852;2023-01-10T07:42:50;101789.50;;;4.49;100.00
76070;BME280;64768;51.738;5.852;2023-01-10T07:45:39;101789.75;;;4.44;100.00
76070;BME280;64768;51.738;5.852;2023-01-10T07:48:30;101802.09;;;4.45;100.00
76070;BME280;64768;51.738;5.852;2023-01-10T08:26:50;101816.78;;;4.36;100.00
76070;BME280;64768;51.738;5.852;2023-01-10T08:29:21;101816.94;;;4.39;100.00
76070;BME280;64768;51.738;5.852;2023-01-10T08:31:54;101812.53;;;4.35;100.00
76070;BME280;64768;51.738;5.852;2023-01-10T08:34:35;101819.06;;;4.46;100.00
76070;BME280;64768;51.738;5.852;2023-01-10T08:37:23;101823.22;;;4.43;100.00
76070;BME280;64768;51.738;5.852;2023-01-10T08:39:55;101820.88;;;4.54;100.00
76070;BME280;64768;51.738;5.852;2023-01-10T08:42:32;101817.53;;;4.57;100.00
76070;BME280;64768;51.738;5.852;2023-01-10T08:45:03;101835.16;;;4.67;100.00
76070;BME280;64768;51.738;5.852;2023-01-10T08:47:52;101818.84;;;4.63;100.00
76070;BME280;64768;51.738;5.852;2023-01-10T08:50:25;101834.63;;;4.73;100.00
76070;BME280;64768;51.738;5.852;2023-01-10T08:53:04;101809.97;;;4.63;100.00
76070;BME280;64768;51.738;5.852;2023-01-10T08:55:36;101816.84;;;4.72;100.00
76070;BME280;64768;51.738;5.852;2023-01-10T08:58:20;101828.41;;;4.85;100.00
76070;BME280;64768;51.738;5.852;2023-01-10T09:00:49;101830.44;;;4.88;100.00
76070;BME280;64768;51.738;5.852;2023-01-10T09:03:30;101814.91;;;4.85;100.00
76070;BME280;64768;51.738;5.852;2023-01-10T09:06:11;101811.56;;;4.88;100.00
76070;BME280;64768;51.738;5.852;2023-01-10T09:08:42;101801.84;;;4.87;100.00
76070;BME280;64768;51.738;5.852;2023-01-10T09:11:23;101810.44;;;4.89;100.00
76070;BME280;64768;51.738;5.852;2023-01-10T09:14:00;101822.13;;;5.05;100.00
76070;BME280;64768;51.738;5.852;2023-01-10T09:16:33;101821.78;;;5.07;100.00
76070;BME280;64768;51.738;5.852;2023-01-10T09:19:09;101822.56;;;5.07;100.00
76070;BME280;64768;51.738;5.852;2023-01-10T09:21:42;101821.78;;;5.07;100.00
76070;BME280;64768;51.738;5.852;2023-01-10T09:24:13;101816.03;;;5.08;100.00
76070;BME280;64768;51.738;5.852;2023-01-10T09:26:48;101794.44;;;4.96;100.00
76070;BME280;64768;51.738;5.852;2023-01-10T09:29:24;101809.94;;;5.11;100.00
76070;BME280;64768;51.738;5.852;2023-01-10T09:31:54;101803.66;;;5.07;100.00
76070;BME280;64768;51.738;5.852;2023-01-10T09:34:25;101806.13;;;5.12;100.00
76070;BME280;64768;51.738;5.852;2023-01-10T09:36:58;101800.97;;;5.07;100.00
76070;BME280;64768;51.738;5.852;2023-01-10T09:39:31;101799.50;;;5.10;100.00
76070;BME280;64768;51.738;5.852;2023-01-10T09:42:24;101800.28;;;5.10;100.00
76070;BME280;64768;51.738;5.852;2023-01-10T09:45:08;101808.47;;;5.14;100.00
76070;BME280;64768;51.738;5.852;2023-01-10T09:47:50;101800.38;;;5.14;100.00
76070;BME280;64768;51.738;5.852;2023-01-10T09:50:28;101819.25;;;5.26;100.00
76070;BME280;64768;51.738;5.852;2023-01-10T09:53:12;101821.63;;;5.28;100.00
76070;BME280;64768;51.738;5.852;2023-01-10T09:55:58;101798.91;;;5.17;100.00
76070;BME280;64768;51.738;5.852;2023-01-10T09:58:30;101819.34;;;5.30;100.00
76070;BME280;64768;51.738;5.852;2023-01-10T10:01:08;101801.59;;;5.17;100.00
76070;BME280;64768;51.738;5.852;2023-01-10T10:03:50;101812.63;;;5.24;100.00
76070;BME280;64768;51.738;5.852;2023-01-10T10:06:27;101823.97;;;5.29;100.00
76070;BME280;64768;51.738;5.852;2023-01-10T10:09:00;101831.47;;;5.36;100.00
76070;BME280;64768;51.738;5.852;2023-01-10T10:11:40;101820.59;;;5.32;100.00
76070;BME280;64768;51.738;5.852;2023-01-10T10:14:24;101830.47;;;5.40;100.00
76070;BME280;64768;51.738;5.852;2023-01-10T10:17:25;101840.94;;;5.42;100.00
76070;BME280;64768;51.738;5.852;2023-01-10T10:20:18;101816.31;;;5.31;100.00
76070;BME280;64768;51.738;5.852;2023-01-10T10:23:01;101824.94;;;5.49;100.00
76070;BME280;64768;51.738;5.852;2023-01-10T10:25:55;101815.59;;;5.47;100.00
76070;BME280;64768;51.738;5.852;2023-01-10T10:31:50;101790.16;;;5.48;100.00
76070;BME280;64768;51.738;5.852;2023-01-10T10:34:29;101782.47;;;5.50;100.00
76070;BME280;64768;51.738;5.852;2023-01-10T10:37:16;101795.94;;;5.62;100.00
76070;BME280;64768;51.738;5.852;2023-01-10T10:39:53;101784.09;;;5.66;100.00
76070;BME280;64768;51.738;5.852;2023-01-10T10:42:30;101775.91;;;5.63;100.00
76070;BME280;64768;51.738;5.852;2023-01-10T10:45:04;101776.00;;;5.66;100.00
76070;BME280;64768;51.738;5.852;2023-01-10T10:47:38;101780.47;;;5.75;100.00
76070;BME280;64768;51.738;5.852;2023-01-10T10:50:30;101775.06;;;5.75;100.00
76070;BME280;64768;51.738;5.852;2023-01-10T10:53:10;101777.25;;;5.85;100.00
76070;BME280;64768;51.738;5.852;2023-01-10T10:55:41;101768.81;;;5.86;100.00
76070;BME280;64768;51.738;5.852;2023-01-10T10:58:22;101755.88;;;5.80;100.00
76070;BME280;64768;51.738;5.852;2023-01-10T11:00:55;101768.69;;;5.95;100.00
76070;BME280;64768;51.738;5.852;2023-01-10T11:03:34;101744.38;;;5.83;100.00
76070;BME280;64768;51.738;5.852;2023-01-10T11:06:13;101742.69;;;5.90;100.00
76070;BME280;64768;51.738;5.852;2023-01-10T11:08:46;101734.00;;;5.85;100.00
76070;BME280;64768;51.738;5.852;2023-01-10T11:11:24;101741.22;;;5.93;100.00
76070;BME280;64768;51.738;5.852;2023-01-10T11:13:59;101731.09;;;5.90;100.00
76070;BME280;64768;51.738;5.852;2023-01-10T11:16:30;101742.84;;;5.97;100.00
76070;BME280;64768;51.738;5.852;2023-01-10T11:19:16;101735.88;;;5.96;100.00
76070;BME280;64768;51.738;5.852;2023-01-10T11:21:55;101717.22;;;5.91;100.00
76070;BME280;64768;51.738;5.852;2023-01-10T11:24:29;101737.28;;;6.06;100.00
76070;BME280;64768;51.738;5.852;2023-01-10T11:27:02;101727.06;;;5.99;100.00
76070;BME280;64768;51.738;5.852;2023-01-10T11:29:37;101709.91;;;5.92;100.00
76070;BME280;64768;51.738;5.852;2023-01-10T11:32:12;101721.16;;;5.94;100.00
76070;BME280;64768;51.738;5.852;2023-01-10T11:34:48;101714.16;;;5.93;100.00
76070;BME280;64768;51.738;5.852;2023-01-10T11:37:24;101710.34;;;5.94;100.00
76070;BME280;64768;51.738;5.852;2023-01-10T11:40:16;101708.94;;;6.00;100.00
76070;BME280;64768;51.738;5.852;2023-01-10T11:42:58;101711.75;;;6.04;100.00
76070;BME280;64768;51.738;5.852;2023-01-10T11:45:30;101712.88;;;6.03;100.00
76070;BME280;64768;51.738;5.852;2023-01-10T11:48:09;101730.13;;;6.14;100.00
76070;BME280;64768;51.738;5.852;2023-01-10T11:50:49;101717.31;;;6.11;100.00
76070;BME280;64768;51.738;5.852;2023-01-10T11:53:40;101706.84;;;6.09;100.00
76070;BME280;64768;51.738;5.852;2023-01-10T11:56:23;101688.97;;;6.05;100.00
76070;BME280;64768;51.738;5.852;2023-01-10T11:58:58;101707.47;;;6.18;100.00
76070;BME280;64768;51.738;5.852;2023-01-10T12:01:30;101698.22;;;6.19;100.00
76070;BME280;64768;51.738;5.852;2023-01-10T12:04:15;101693.84;;;6.15;100.00
76070;BME280;64768;51.738;5.852;2023-01-10T12:06:47;101669.34;;;6.08;100.00
76070;BME280;64768;51.738;5.852;2023-01-10T12:09:36;101698.66;;;6.21;100.00
76070;BME280;64768;51.738;5.852;2023-01-10T12:12:20;101669.69;;;6.06;100.00
76070;BME280;64768;51.738;5.852;2023-01-10T12:14:51;101688.84;;;6.17;100.00
76070;BME280;64768;51.738;5.852;2023-01-10T12:17:23;101685.91;;;6.22;100.00
76070;BME280;64768;51.738;5.852;2023-01-10T12:19:54;101685.63;;;6.27;100.00
76070;BME280;64768;51.738;5.852;2023-01-10T12:22:28;101661.31;;;6.11;100.00
76070;BME280;64768;51.738;5.852;2023-01-10T12:25:20;101666.91;;;6.18;100.00
76070;BME280;64768;51.738;5.852;2023-01-10T12:28:02;101682.22;;;6.30;100.00
76070;BME280;64768;51.738;5.852;2023-01-10T12:30:33;101668.53;;;6.23;100.00
76070;BME280;64768;51.738;5.852;2023-01-10T12:33:09;101675.78;;;6.35;100.00
76070;BME280;64768;51.738;5.852;2023-01-10T12:35:58;101661.28;;;6.27;100.00
76070;BME280;64768;51.738;5.852;2023-01-10T12:38:36;101639.38;;;6.16;100.00
76070;BME280;64768;51.738;5.852;2023-01-10T12:41:29;101661.88;;;6.36;100.00
76070;BME280;64768;51.738;5.852;2023-01-10T12:44:22;101653.00;;;6.36;100.00
76070;BME280;64768;51.738;5.852;2023-01-10T12:47:01;101650.19;;;6.32;100.00
76070;BME280;64768;51.738;5.852;2023-01-10T12:49:34;101644.00;;;6.31;100.00
76070;BME280;64768;51.738;5.852;2023-01-10T12:52:17;101626.47;;;6.25;100.00
76070;BME280;64768;51.738;5.852;2023-01-10T12:55:01;101622.47;;;6.19;100.00
76070;BME280;64768;51.738;5.852;2023-01-10T12:57:37;101617.75;;;6.16;100.00
76070;BME280;64768;51.738;5.852;2023-01-10T13:00:17;101608.19;;;6.19;100.00
76070;BME280;64768;51.738;5.852;2023-01-10T13:02:51;101626.19;;;6.30;100.00
76070;BME280;64768;51.738;5.852;2023-01-10T13:05:30;101597.69;;;6.17;100.00
76070;BME280;64768;51.738;5.852;2023-01-10T13:08:06;101617.72;;;6.32;100.00
76070;BME280;64768;51.738;5.852;2023-01-10T13:10:45;101615.38;;;6.30;100.00
76070;BME280;64768;51.738;5.852;2023-01-10T13:13:42;101599.78;;;6.24;100.00
76070;BME280;64768;51.738;5.852;2023-01-10T13:16:26;101605.75;;;6.33;100.00
76070;BME280;64768;51.738;5.852;2023-01-10T13:19:25;101576.94;;;6.21;100.00
76070;BME280;64768;51.738;5.852;2023-01-10T13:22:19;101585.47;;;6.23;100.00
76070;BME280;64768;51.738;5.852;2023-01-10T13:25:17;101568.09;;;6.24;100.00
76070;BME280;64768;51.738;5.852;2023-01-10T13:28:01;101562.28;;;6.22;100.00
76070;BME280;64768;51.738;5.852;2023-01-10T13:30:49;101572.16;;;6.34;100.00
76070;BME280;64768;51.738;5.852;2023-01-10T13:33:35;101548.31;;;6.20;100.00
76070;BME280;64768;51.738;5.852;2023-01-10T13:36:19;101553.88;;;6.27;100.00
76070;BME280;64768;51.738;5.852;2023-01-10T13:39:03;101559.69;;;6.29;100.00
76070;BME280;64768;51.738;5.852;2023-01-10T13:48:31;101541.34;;;6.39;100.00
76070;BME280;64768;51.738;5.852;2023-01-10T13:51:20;101529.69;;;6.35;100.00
76070;BME280;64768;51.738;5.852;2023-01-10T13:56:26;101516.78;;;6.28;100.00
76070;BME280;64768;51.738;5.852;2023-01-10T13:57:56;101511.00;;;6.29;100.00
76070;BME280;64768;51.738;5.852;2023-01-10T14:00:50;101519.47;;;6.47;100.00
76070;BME280;64768;51.738;5.852;2023-01-10T14:03:55;101495.78;;;6.41;100.00
76070;BME280;64768;51.738;5.852;2023-01-10T14:06:50;101492.22;;;6.37;100.00
76070;BME280;64768;51.738;5.852;2023-01-10T14:09:40;101489.53;;;6.37;100.00
76070;BME280;64768;51.738;5.852;2023-01-10T14:12:24;101506.47;;;6.53;100.00
76070;BME280;64768;51.738;5.852;2023-01-10T14:15:21;101506.09;;;6.54;100.00
76070;BME280;64768;51.738;5.852;2023-01-10T14:17:59;101484.25;;;6.44;100.00
76070;BME280;64768;51.738;5.852;2023-01-10T14:23:39;101509.31;;;6.60;100.00
76070;BME280;64768;51.738;5.852;2023-01-10T14:26:28;101510.09;;;6.60;100.00
76070;BME280;64768;51.738;5.852;2023-01-10T14:29:06;101506.22;;;6.61;100.00
76070;BME280;64768;51.738;5.852;2023-01-10T14:31:42;101503.16;;;6.63;100.00
76070;BME280;64768;51.738;5.852;2023-01-10T14:34:21;101505.09;;;6.62;100.00
76070;BME280;64768;51.738;5.852;2023-01-10T14:36:57;101505.50;;;6.65;100.00
76070;BME280;64768;51.738;5.852;2023-01-10T14:39:31;101489.28;;;6.65;100.00
76070;BME280;64768;51.738;5.852;2023-01-10T14:42:07;101463.66;;;6.58;100.00
76070;BME280;64768;51.738;5.852;2023-01-10T14:44:49;101464.22;;;6.48;100.00
76070;BME280;64768;51.738;5.852;2023-01-10T14:47:28;101484.16;;;6.59;100.00
76070;BME280;64768;51.738;5.852;2023-01-10T14:50:00;101455.25;;;6.44;100.00
76070;BME280;64768;51.738;5.852;2023-01-10T14:52:32;101463.81;;;6.46;100.00
76070;BME280;64768;51.738;5.852;2023-01-10T14:55:17;101456.34;;;6.40;100.00
76070;BME280;64768;51.738;5.852;2023-01-10T14:57:56;101451.34;;;6.42;100.00
76070;BME280;64768;51.738;5.852;2023-01-10T15:00:27;101435.34;;;6.33;100.00
76070;BME280;64768;51.738;5.852;2023-01-10T15:02:59;101438.56;;;6.39;100.00
76070;BME280;64768;51.738;5.852;2023-01-10T15:05:44;101429.59;;;6.35;100.00
76070;BME280;64768;51.738;5.852;2023-01-10T15:08:21;101413.94;;;6.24;100.00
76070;BME280;64768;51.738;5.852;2023-01-10T15:10:58;101412.72;;;6.22;100.00
76070;BME280;64768;51.738;5.852;2023-01-10T15:13:34;101401.69;;;6.11;100.00
76070;BME280;64768;51.738;5.852;2023-01-10T15:16:14;101399.41;;;6.13;100.00
76070;BME280;64768;51.738;5.852;2023-01-10T15:18:55;101388.59;;;6.13;100.00
76070;BME280;64768;51.738;5.852;2023-01-10T15:21:28;101382.69;;;6.08;100.00
76070;BME280;64768;51.738;5.852;2023-01-10T15:24:22;101388.94;;;6.12;100.00
76070;BME280;64768;51.738;5.852;2023-01-10T15:26:57;101396.44;;;6.18;100.00
76070;BME280;64768;51.738;5.852;2023-01-10T15:29:34;101394.00;;;6.13;100.00
76070;BME280;64768;51.738;5.852;2023-01-10T15:32:20;101380.84;;;6.12;100.00
76070;BME280;64768;51.738;5.852;2023-01-10T15:34:53;101371.47;;;6.06;100.00
76070;BME280;64768;51.738;5.852;2023-01-10T15:37:27;101362.47;;;6.01;100.00
76070;BME280;64768;51.738;5.852;2023-01-10T15:40:05;101368.69;;;6.02;100.00
76070;BME280;64768;51.738;5.852;2023-01-10T15:42:36;101377.72;;;6.10;100.00
76070;BME280;64768;51.738;5.852;2023-01-10T15:45:32;101354.97;;;5.91;100.00
76070;BME280;64768;51.738;5.852;2023-01-10T15:48:04;101350.34;;;5.92;100.00
76070;BME280;64768;51.738;5.852;2023-01-10T15:50:35;101355.44;;;5.97;100.00
76070;BME280;64768;51.738;5.852;2023-01-10T15:53:07;101350.25;;;5.88;100.00
76070;BME280;64768;51.738;5.852;2023-01-10T15:55:46;101331.16;;;5.81;100.00
76070;BME280;64768;51.738;5.852;2023-01-10T15:58:24;101335.06;;;5.84;100.00
76070;BME280;64768;51.738;5.852;2023-01-10T16:00:56;101338.75;;;5.91;100.00
76070;BME280;64768;51.738;5.852;2023-01-10T16:03:30;101316.44;;;5.79;100.00
76070;BME280;64768;51.738;5.852;2023-01-10T16:06:03;101313.38;;;5.80;100.00
76070;BME280;64768;51.738;5.852;2023-01-10T16:08:36;101327.31;;;5.82;100.00
76070;BME280;64768;51.738;5.852;2023-01-10T16:11:20;101309.59;;;5.85;100.00
76070;BME280;64768;51.738;5.852;2023-01-10T16:14:15;101289.44;;;5.79;100.00
76070;BME280;64768;51.738;5.852;2023-01-10T16:16:51;101312.75;;;5.87;100.00
76070;BME280;64768;51.738;5.852;2023-01-10T16:19:21;101298.97;;;5.72;100.00
76070;BME280;64768;51.738;5.852;2023-01-10T16:21:53;101282.34;;;5.70;100.00
76070;BME280;64768;51.738;5.852;2023-01-10T16:24:27;101292.00;;;5.71;100.00
76070;BME280;64768;51.738;5.852;2023-01-10T16:27:04;101313.81;;;5.82;100.00
76070;BME280;64768;51.738;5.852;2023-01-10T16:29:50;101301.53;;;5.65;100.00
76070;BME280;64768;51.738;5.852;2023-01-10T16:32:31;101295.91;;;5.74;100.00
76070;BME280;64768;51.738;5.852;2023-01-10T16:35:43;101281.19;;;5.71;100.00
76070;BME280;64768;51.738;5.852;2023-01-10T16:38:17;101281.09;;;5.68;100.00
76070;BME280;64768;51.738;5.852;2023-01-10T16:41:01;101266.81;;;5.67;100.00
76070;BME280;64768;51.738;5.852;2023-01-10T16:43:55;101255.53;;;5.62;100.00
76070;BME280;64768;51.738;5.852;2023-01-10T16:46:25;101259.84;;;5.66;100.00
76070;BME280;64768;51.738;5.852;2023-01-10T16:48:58;101243.56;;;5.63;100.00
76070;BME280;64768;51.738;5.852;2023-01-10T16:51:30;101258.34;;;5.69;100.00
76070;BME280;64768;51.738;5.852;2023-01-10T16:54:00;101243.16;;;5.61;100.00
76070;BME280;64768;51.738;5.852;2023-01-10T16:56:30;101235.47;;;5.63;100.00
76070;BME280;64768;51.738;5.852;2023-01-10T16:59:09;101216.00;;;5.54;100.00
76070;BME280;64768;51.738;5.852;2023-01-10T17:01:45;101241.34;;;5.68;100.00
76070;BME280;64768;51.738;5.852;2023-01-10T17:04:19;101231.16;;;5.58;100.00
76070;BME280;64768;51.738;5.852;2023-01-10T17:06:52;101229.22;;;5.59;100.00
76070;BME280;64768;51.738;5.852;2023-01-10T17:09:23;101232.47;;;5.68;100.00
76070;BME280;64768;51.738;5.852;2023-01-10T17:12:06;101207.13;;;5.53;100.00
76070;BME280;64768;51.738;5.852;2023-01-10T17:14:54;101216.78;;;5.54;100.00
76070;BME280;64768;51.738;5.852;2023-01-10T17:17:23;101217.22;;;5.56;100.00
76070;BME280;64768;51.738;5.852;2023-01-10T17:19:55;101231.63;;;5.64;100.00
76070;BME280;64768;51.738;5.852;2023-01-10T17:22:26;101205.13;;;5.50;100.00
76070;BME280;64768;51.738;5.852;2023-01-10T17:24:55;101196.75;;;5.55;100.00
76070;BME280;64768;51.738;5.852;2023-01-10T17:27:25;101198.66;;;5.55;100.00
76070;BME280;64768;51.738;5.852;2023-01-10T17:29:57;101197.38;;;5.49;100.00
76070;BME280;64768;51.738;5.852;2023-01-10T17:32:27;101195.19;;;5.54;100.00
76070;BME280;64768;51.738;5.852;2023-01-10T17:34:56;101193.78;;;5.64;100.00
76070;BME280;64768;51.738;5.852;2023-01-10T17:37:25;101185.28;;;5.62;100.00
76070;BME280;64768;51.738;5.852;2023-01-10T17:39:54;101186.84;;;5.63;100.00
76070;BME280;64768;51.738;5.852;2023-01-10T17:42:23;101187.97;;;5.62;100.00
76070;BME280;64768;51.738;5.852;2023-01-10T17:44:59;101176.75;;;5.60;100.00
76070;BME280;64768;51.738;5.852;2023-01-10T17:47:30;101182.63;;;5.65;100.00
76070;BME280;64768;51.738;5.852;2023-01-10T17:49:59;101160.41;;;5.53;100.00
76070;BME280;64768;51.738;5.852;2023-01-10T17:52:28;101170.16;;;5.57;100.00
76070;BME280;64768;51.738;5.852;2023-01-10T17:54:58;101173.31;;;5.63;100.00
76070;BME280;64768;51.738;5.852;2023-01-10T17:57:28;101176.81;;;5.63;100.00
76070;BME280;64768;51.738;5.852;2023-01-10T18:00:01;101161.25;;;5.57;100.00
76070;BME280;64768;51.738;5.852;2023-01-10T18:02:30;101173.38;;;5.66;100.00
76070;BME280;64768;51.738;5.852;2023-01-10T18:04:59;101161.78;;;5.66;100.00
76070;BME280;64768;51.738;5.852;2023-01-10T18:07:28;101150.56;;;5.64;100.00
76070;BME280;64768;51.738;5.852;2023-01-10T18:09:58;101137.78;;;5.61;100.00
76070;BME280;64768;51.738;5.852;2023-01-10T18:12:27;101119.88;;;5.53;100.00
76070;BME280;64768;51.738;5.852;2023-01-10T18:14:56;101114.47;;;5.53;100.00
76070;BME280;64768;51.738;5.852;2023-01-10T18:17:29;101121.63;;;5.64;100.00
76070;BME280;64768;51.738;5.852;2023-01-10T18:22:55;101099.13;;;5.57;100.00
76070;BME280;64768;51.738;5.852;2023-01-10T18:25:36;101103.06;;;5.63;100.00
76070;BME280;64768;51.738;5.852;2023-01-10T18:28:05;101098.34;;;5.56;100.00
76070;BME280;64768;51.738;5.852;2023-01-10T18:30:34;101108.06;;;5.61;100.00
76070;BME280;64768;51.738;5.852;2023-01-10T18:33:08;101099.78;;;5.73;100.00
76070;BME280;64768;51.738;5.852;2023-01-10T18:35:37;101068.25;;;5.58;100.00
76070;BME280;64768;51.738;5.852;2023-01-10T18:38:08;101093.09;;;5.67;100.00
76070;BME280;64768;51.738;5.852;2023-01-10T18:40:39;101088.47;;;5.67;100.00
76070;BME280;64768;51.738;5.852;2023-01-10T18:43:11;101079.59;;;5.67;100.00
76070;BME280;64768;51.738;5.852;2023-01-10T18:45:42;101082.06;;;5.76;100.00
76070;BME280;64768;51.738;5.852;2023-01-10T18:48:14;101078.81;;;5.66;100.00
76070;BME280;64768;51.738;5.852;2023-01-10T18:50:44;101063.38;;;5.67;100.00
76070;BME280;64768;51.738;5.852;2023-01-10T18:53:13;101063.44;;;5.70;100.00
76070;BME280;64768;51.738;5.852;2023-01-10T18:55:50;101074.78;;;5.80;100.00
76070;BME280;64768;51.738;5.852;2023-01-10T18:58:21;101058.09;;;5.74;100.00
76070;BME280;64768;51.738;5.852;2023-01-10T19:00:51;101063.97;;;5.80;100.00
76070;BME280;64768;51.738;5.852;2023-01-10T19:03:23;101051.59;;;5.79;100.00
76070;BME280;64768;51.738;5.852;2023-01-10T19:05:52;101062.41;;;5.79;100.00
76070;BME280;64768;51.738;5.852;2023-01-10T19:08:23;101033.00;;;5.73;100.00
76070;BME280;64768;51.738;5.852;2023-01-10T19:10:52;101054.34;;;5.82;100.00
76070;BME280;64768;51.738;5.852;2023-01-10T19:13:22;101079.25;;;5.91;100.00
76070;BME280;64768;51.738;5.852;2023-01-10T19:15:51;101045.81;;;5.80;100.00
76070;BME280;64768;51.738;5.852;2023-01-10T19:18:24;101049.44;;;5.88;100.00
76070;BME280;64768;51.738;5.852;2023-01-10T19:20:53;101053.34;;;5.90;100.00
76070;BME280;64768;51.738;5.852;2023-01-10T19:27:46;101064.66;;;5.99;100.00
76070;BME280;64768;51.738;5.852;2023-01-10T19:40:17;101053.16;;;6.03;100.00
76070;BME280;64768;51.738;5.852;2023-01-10T19:42:52;101039.56;;;5.99;100.00
76070;BME280;64768;51.738;5.852;2023-01-10T19:46:23;101024.44;;;5.94;100.00
76070;BME280;64768;51.738;5.852;2023-01-10T19:49:09;101029.06;;;5.94;100.00
76070;BME280;64768;51.738;5.852;2023-01-10T19:52:10;101031.81;;;5.97;100.00
76070;BME280;64768;51.738;5.852;2023-01-10T19:54:50;101028.94;;;6.13;100.00
76070;BME280;64768;51.738;5.852;2023-01-10T19:57:26;101027.72;;;6.07;100.00
76070;BME280;64768;51.738;5.852;2023-01-10T19:59:56;101031.53;;;6.03;100.00
76070;BME280;64768;51.738;5.852;2023-01-10T20:02:25;101025.47;;;6.13;100.00
76070;BME280;64768;51.738;5.852;2023-01-10T20:05:21;101028.53;;;6.11;100.00
76070;BME280;64768;51.738;5.852;2023-01-10T20:08:27;101024.41;;;6.21;100.00
76070;BME280;64768;51.738;5.852;2023-01-10T20:11:17;101005.78;;;6.16;100.00
76070;BME280;64768;51.738;5.852;2023-01-10T20:14:01;101011.31;;;6.23;100.00
76070;BME280;64768;51.738;5.852;2023-01-10T20:16:47;101000.34;;;6.12;100.00
76070;BME280;64768;51.738;5.852;2023-01-10T20:22:35;100975.28;;;6.15;100.00
76070;BME280;64768;51.738;5.852;2023-01-10T20:31:43;100990.16;;;6.32;100.00
76070;BME280;64768;51.738;5.852;2023-01-10T20:34:28;100990.13;;;6.28;100.00
76070;BME280;64768;51.738;5.852;2023-01-10T20:40:15;100973.56;;;6.33;100.00
76070;BME280;64768;51.738;5.852;2023-01-10T20:43:13;100962.28;;;6.28;100.00
76070;BME280;64768;51.738;5.852;2023-01-10T20:46:58;100977.94;;;6.45;100.00
76070;BME280;64768;51.738;5.852;2023-01-10T21:02:57;100952.41;;;6.43;100.00
76070;BME280;64768;51.738;5.852;2023-01-10T21:13:05;100930.84;;;6.50;100.00
76070;BME280;64768;51.738;5.852;2023-01-10T21:19:48;100927.06;;;6.58;100.00
76070;BME280;64768;51.738;5.852;2023-01-10T21:26:02;100932.66;;;6.76;100.00
76070;BME280;64768;51.738;5.852;2023-01-10T22:08:53;100888.78;;;7.00;100.00
76070;BME280;64768;51.738;5.852;2023-01-10T22:18:46;100862.78;;;6.92;100.00
76070;BME280;64768;51.738;5.852;2023-01-10T22:21:30;100874.88;;;7.05;100.00
76070;BME280;64768;51.738;5.852;2023-01-10T22:24:52;100852.00;;;6.99;100.00
76070;BME280;64768;51.738;5.852;2023-01-10T22:27:53;100853.22;;;7.09;100.00
76070;BME280;64768;51.738;5.852;2023-01-10T22:33:55;100844.34;;;7.12;100.00
76070;BME280;64768;51.738;5.852;2023-01-10T22:40:20;100864.16;;;7.19;100.00
76070;BME280;64768;51.738;5.852;2023-01-10T22:43:08;100828.50;;;7.14;100.00
76070;BME280;64768;51.738;5.852;2023-01-10T22:45:46;100836.69;;;7.21;100.00
76070;BME280;64768;51.738;5.852;2023-01-10T22:48:31;100835.94;;;7.31;100.00
76070;BME280;64768;51.738;5.852;2023-01-10T22:51:11;100814.25;;;7.20;100.00
76070;BME280;64768;51.738;5.852;2023-01-10T22:53:41;100829.34;;;7.21;100.00
76070;BME280;64768;51.738;5.852;2023-01-10T22:56:22;100845.28;;;7.37;100.00
76070;BME280;64768;51.738;5.852;2023-01-10T22:58:51;100826.72;;;7.39;100.00
76070;BME280;64768;51.738;5.852;2023-01-10T23:01:22;100811.56;;;7.28;100.00
76070;BME280;64768;51.738;5.852;2023-01-10T23:03:51;100825.56;;;7.40;100.00
76070;BME280;64768;51.738;5.852;2023-01-10T23:06:21;100826.75;;;7.46;100.00
76070;BME280;64768;51.738;5.852;2023-01-10T23:08:49;100803.47;;;7.35;100.00
76070;BME280;64768;51.738;5.852;2023-01-10T23:11:21;100830.97;;;7.40;100.00
76070;BME280;64768;51.738;5.852;2023-01-10T23:13:51;100786.84;;;7.36;100.00
76070;BME280;64768;51.738;5.852;2023-01-10T23:16:26;100795.78;;;7.47;100.00
76070;BME280;64768;51.738;5.852;2023-01-10T23:18:58;100796.94;;;7.46;100.00
76070;BME280;64768;51.738;5.852;2023-01-10T23:21:32;100792.72;;;7.52;100.00
76070;BME280;64768;51.738;5.852;2023-01-10T23:24:01;100769.09;;;7.57;100.00
76070;BME280;64768;51.738;5.852;2023-01-10T23:26:36;100786.97;;;7.65;100.00
76070;BME280;64768;51.738;5.852;2023-01-10T23:29:05;100784.63;;;7.67;100.00
76070;BME280;64768;51.738;5.852;2023-01-10T23:31:34;100796.25;;;7.67;100.00
76070;BME280;64768;51.738;5.852;2023-01-10T23:34:08;100800.53;;;7.68;100.00
76070;BME280;64768;51.738;5.852;2023-01-10T23:36:37;100776.13;;;7.65;100.00
76070;BME280;64768;51.738;5.852;2023-01-10T23:39:33;100780.00;;;7.74;100.00
76070;BME280;64768;51.738;5.852;2023-01-10T23:45:40;100773.00;;;7.63;100.00
76070;BME280;64768;51.738;5.852;2023-01-10T23:48:36;100783.88;;;7.80;100.00
